createdAt,value
2022-10-17T00:00:57.173Z,101096.94
2022-10-17T00:03:23.901Z,101106.34
2022-10-17T00:05:50.567Z,101104.50
2022-10-17T00:08:18.305Z,101158.38
2022-10-17T00:10:45.972Z,101146.44
2022-10-17T00:13:15.685Z,101083.91
2022-10-17T00:15:44.914Z,101113.09
2022-10-17T00:18:11.660Z,101142.22
2022-10-17T00:20:38.417Z,101093.97
2022-10-17T00:23:05.049Z,100980.34
2022-10-17T00:25:31.886Z,101085.16
2022-10-17T00:27:58.567Z,101022.25
2022-10-17T00:30:25.159Z,101081.16
2022-10-17T00:32:51.872Z,100994.59
2022-10-17T00:35:18.667Z,101101.75
2022-10-17T00:37:45.378Z,101044.91
2022-10-17T00:40:12.178Z,101134.25
2022-10-17T00:42:38.824Z,101138.88
2022-10-17T00:45:11.687Z,101154.63
2022-10-17T00:47:38.763Z,101115.78
2022-10-17T00:50:07.184Z,101007.16
2022-10-17T00:52:35.364Z,101028.97
2022-10-17T00:55:13.951Z,101155.06
2022-10-17T00:57:41.535Z,101139.09
2022-10-17T01:00:10.150Z,101019.31
2022-10-17T01:02:37.230Z,101049.09
2022-10-17T01:05:04.357Z,100987.25
2022-10-17T01:07:34.709Z,101052.84
2022-10-17T01:10:07.057Z,100973.00
2022-10-17T01:13:15.268Z,101109.28
2022-10-17T01:16:03.612Z,101174.78
2022-10-17T01:18:48.902Z,101139.72
2022-10-17T01:21:31.756Z,101133.41
2022-10-17T01:24:41.651Z,101117.25
2022-10-17T01:27:30.321Z,101175.19
2022-10-17T01:31:11.318Z,101088.28
2022-10-17T01:34:12.763Z,101162.19
2022-10-17T01:37:19.434Z,101041.53
2022-10-17T01:40:00.440Z,101155.25
2022-10-17T01:42:35.996Z,100976.94
2022-10-17T01:45:23.244Z,101131.91
2022-10-17T01:47:53.641Z,101016.78
2022-10-17T01:50:28.197Z,101097.75
2022-10-17T01:53:19.746Z,101105.69
2022-10-17T01:55:49.938Z,101023.91
2022-10-17T01:58:24.992Z,101145.59
2022-10-17T02:00:53.381Z,101116.63
2022-10-17T02:03:25.811Z,101016.78
2022-10-17T02:05:52.658Z,101046.16
2022-10-17T02:08:29.732Z,101084.31
2022-10-17T02:11:02.417Z,101141.78
2022-10-17T02:13:38.117Z,101137.59
2022-10-17T02:16:31.222Z,100952.59
2022-10-17T02:19:20.973Z,101065.41
2022-10-17T02:21:53.381Z,101138.84
2022-10-17T02:24:35.067Z,101081.78
2022-10-17T02:27:29.231Z,101134.66
2022-10-17T02:30:05.772Z,101061.22
2022-10-17T02:32:55.725Z,101053.47
2022-10-17T02:35:25.403Z,101134.03
2022-10-17T02:37:53.539Z,101014.25
2022-10-17T02:40:23.966Z,101029.56
2022-10-17T02:42:52.592Z,101099.38
2022-10-17T02:45:19.706Z,101112.41
2022-10-17T02:47:54.100Z,101134.25
2022-10-17T02:53:01.268Z,101009.66
2022-10-17T02:55:35.252Z,101088.94
2022-10-17T02:58:08.863Z,101017.84
2022-10-17T03:00:35.590Z,101090.19
2022-10-17T03:03:17.921Z,101101.72
2022-10-17T03:05:47.027Z,101090.22
2022-10-17T03:08:13.683Z,101071.31
2022-10-17T03:10:40.334Z,101022.91
2022-10-17T03:13:06.918Z,101084.72
2022-10-17T03:15:33.479Z,101105.09
2022-10-17T03:18:00.139Z,101068.81
2022-10-17T03:20:26.981Z,101083.06
2022-10-17T03:22:53.648Z,101092.94
2022-10-17T03:25:20.518Z,101085.78
2022-10-17T03:27:47.274Z,101131.34
2022-10-17T03:30:13.883Z,101049.50
2022-10-17T03:32:40.498Z,101079.50
2022-10-17T03:35:08.408Z,101048.69
2022-10-17T03:37:37.901Z,101035.25
2022-10-17T03:40:04.872Z,101061.25
2022-10-17T03:42:32.275Z,101021.81
2022-10-17T03:44:58.822Z,101108.22
2022-10-17T03:47:25.493Z,101050.38
2022-10-17T03:49:53.694Z,101050.38
2022-10-17T03:52:20.340Z,101073.00
2022-10-17T03:54:46.936Z,101078.88
2022-10-17T03:57:13.553Z,101131.28
2022-10-17T03:59:40.131Z,101084.31
2022-10-17T04:02:06.707Z,101165.13
2022-10-17T04:04:33.314Z,101068.38
2022-10-17T04:06:59.941Z,101089.38
2022-10-17T04:09:26.725Z,101027.72
2022-10-17T04:11:53.594Z,101060.41
2022-10-17T04:14:20.633Z,101024.53
2022-10-17T04:16:47.309Z,101034.00
2022-10-17T04:19:14.295Z,101166.38
2022-10-17T04:21:40.867Z,101054.53
2022-10-17T04:24:10.910Z,101124.16
2022-10-17T04:26:37.723Z,101090.63
2022-10-17T04:29:04.427Z,101002.72
2022-10-17T04:31:31.038Z,101092.69
2022-10-17T04:33:57.651Z,101004.41
2022-10-17T04:36:24.279Z,101026.63
2022-10-17T04:38:50.955Z,101145.13
2022-10-17T04:41:18.888Z,101132.13
2022-10-17T04:43:48.629Z,101104.22
2022-10-17T04:46:17.775Z,101184.59
2022-10-17T04:48:45.224Z,101156.69
2022-10-17T04:51:14.836Z,101000.00
2022-10-17T04:53:47.799Z,101138.63
2022-10-17T04:56:21.281Z,101023.91
2022-10-17T04:58:48.478Z,101121.22
2022-10-17T05:01:17.959Z,101134.84
2022-10-17T05:03:52.160Z,101184.63
2022-10-17T05:06:21.587Z,101131.72
2022-10-17T05:08:50.485Z,101174.34
2022-10-17T05:11:25.661Z,101182.94
2022-10-17T05:14:10.879Z,101120.81
2022-10-17T05:16:37.526Z,101021.41
2022-10-17T05:19:04.105Z,101166.13
2022-10-17T05:21:30.771Z,101120.38
2022-10-17T05:23:57.775Z,101208.53
2022-10-17T05:26:24.475Z,101140.94
2022-10-17T05:29:09.424Z,101168.66
2022-10-17T05:31:36.263Z,101206.47
2022-10-17T05:34:04.202Z,101082.19
2022-10-17T05:36:31.082Z,101035.22
2022-10-17T05:38:58.254Z,101167.84
2022-10-17T05:41:25.013Z,101037.72
2022-10-17T05:43:51.724Z,101093.75
2022-10-17T05:46:29.170Z,101090.56
2022-10-17T05:48:56.232Z,101125.00
2022-10-17T05:51:22.843Z,101135.25
2022-10-17T05:53:49.424Z,101166.13
2022-10-17T05:56:16.114Z,101045.50
2022-10-17T05:58:55.190Z,101036.50
2022-10-17T06:01:24.658Z,101126.69
2022-10-17T06:03:57.957Z,101174.97
2022-10-17T06:06:24.869Z,101148.69
2022-10-17T06:08:58.675Z,101202.44
2022-10-17T06:11:25.540Z,101015.31
2022-10-17T06:13:58.450Z,101042.59
2022-10-17T06:16:25.289Z,101190.69
2022-10-17T06:18:52.108Z,101040.47
2022-10-17T06:21:28.802Z,101091.00
2022-10-17T06:23:55.319Z,101153.34
2022-10-17T06:26:21.983Z,101126.66
2022-10-17T06:28:48.715Z,101039.22
2022-10-17T06:31:17.836Z,101107.16
2022-10-17T06:33:49.724Z,101064.16
2022-10-17T06:36:29.075Z,101089.97
2022-10-17T06:38:55.582Z,101143.88
2022-10-17T06:41:22.139Z,101175.16
2022-10-17T06:44:13.305Z,101194.25
2022-10-17T06:46:40.502Z,101156.50
2022-10-17T06:49:07.551Z,101197.22
2022-10-17T06:51:37.922Z,101220.31
2022-10-17T06:54:04.956Z,101204.97
2022-10-17T06:56:31.684Z,101222.19
2022-10-17T06:59:00.646Z,101186.06
2022-10-17T07:01:34.381Z,101237.91
2022-10-17T07:04:01.279Z,101104.44
2022-10-17T07:06:31.154Z,101228.91
2022-10-17T07:08:58.359Z,101147.06
2022-10-17T07:11:29.990Z,101171.81
2022-10-17T07:13:56.513Z,101174.56
2022-10-17T07:16:23.149Z,101180.81
2022-10-17T07:18:54.545Z,101224.06
2022-10-17T07:21:21.069Z,101219.44
2022-10-17T07:23:47.644Z,101233.69
2022-10-17T07:26:16.587Z,101289.97
2022-10-17T07:28:47.250Z,101258.28
2022-10-17T07:31:17.216Z,101278.41
2022-10-17T07:33:47.856Z,101292.44
2022-10-17T07:36:15.452Z,101293.09
2022-10-17T07:38:42.618Z,101268.53
2022-10-17T07:41:11.655Z,101200.34
2022-10-17T07:43:42.876Z,101245.63
2022-10-17T07:46:11.133Z,101247.97
2022-10-17T07:48:40.788Z,101308.84
2022-10-17T07:51:09.739Z,101271.06
2022-10-17T07:53:42.652Z,101240.38
2022-10-17T07:56:41.850Z,101205.13
2022-10-17T07:59:10.903Z,101186.88
2022-10-17T08:01:37.934Z,101148.50
2022-10-17T08:04:17.802Z,101151.44
2022-10-17T08:11:23.417Z,101123.75
2022-10-17T08:19:34.624Z,101204.66
2022-10-17T08:24:53.797Z,101244.63
2022-10-17T08:30:09.322Z,101266.44
2022-10-17T08:32:41.247Z,101159.63
2022-10-17T08:35:21.173Z,101242.09
2022-10-17T08:38:20.963Z,101199.25
2022-10-17T08:41:22.861Z,101320.72
2022-10-17T08:44:58.081Z,101349.91
2022-10-17T11:31:12.884Z,101493.13
2022-10-17T11:34:11.149Z,101461.69
2022-10-17T11:36:44.141Z,101359.38
2022-10-17T11:39:31.010Z,101327.28
2022-10-17T11:42:18.711Z,101387.78
2022-10-17T11:48:09.825Z,101391.72
2022-10-17T11:54:00.041Z,101454.91
2022-10-17T11:56:59.435Z,101415.97
2022-10-17T12:00:22.497Z,101499.28
2022-10-17T12:20:04.602Z,101384.19
2022-10-17T12:23:39.616Z,101471.06
2022-10-17T17:14:06.775Z,101600.25
2022-10-17T17:16:39.598Z,101681.94
2022-10-17T17:19:08.896Z,101800.72
2022-10-17T17:21:57.453Z,101719.41
2022-10-17T17:27:53.470Z,101725.31
2022-10-17T17:34:11.072Z,101784.69
2022-10-17T17:36:40.179Z,101731.63
2022-10-17T17:39:10.781Z,101763.22
2022-10-17T17:41:37.897Z,101716.47
2022-10-17T17:44:05.306Z,101625.25
2022-10-17T17:46:33.314Z,101774.16
2022-10-17T17:49:00.193Z,101658.94
2022-10-17T17:51:29.483Z,101752.69
2022-10-17T17:53:56.964Z,101763.63
2022-10-17T17:56:25.868Z,101737.25
2022-10-17T17:59:00.326Z,101760.03
2022-10-17T18:01:29.580Z,101796.72
2022-10-17T18:04:11.948Z,101739.56
2022-10-17T18:06:39.647Z,101779.19
2022-10-17T18:09:07.373Z,101692.16
2022-10-17T18:11:36.614Z,101817.31
2022-10-17T18:14:06.759Z,101780.44
2022-10-17T18:16:35.285Z,101840.94
2022-10-17T18:19:07.300Z,101841.94
2022-10-17T18:21:44.524Z,101666.63
2022-10-17T18:24:21.229Z,101763.75
2022-10-17T18:26:48.909Z,101801.50
2022-10-17T18:29:17.164Z,101755.94
2022-10-17T18:31:48.744Z,101731.50
2022-10-17T18:34:18.645Z,101733.16
2022-10-17T18:36:52.771Z,101847.03
2022-10-17T18:39:19.582Z,101834.38
2022-10-17T18:41:46.802Z,101742.00
2022-10-17T18:44:15.619Z,101721.34
2022-10-17T18:46:42.765Z,101733.94
2022-10-17T18:49:11.539Z,101754.84
2022-10-17T18:51:38.819Z,101861.94
2022-10-17T18:54:07.900Z,101751.00
2022-10-17T18:56:34.847Z,101708.63
2022-10-17T18:59:01.621Z,101723.81
2022-10-17T19:01:28.456Z,101777.38
2022-10-17T19:03:58.157Z,101824.16
2022-10-17T19:06:36.073Z,101868.03
2022-10-17T19:09:07.981Z,101794.78
2022-10-17T19:11:37.527Z,101794.34
2022-10-17T19:14:05.246Z,101878.94
2022-10-17T19:16:38.547Z,101842.41
2022-10-17T19:19:17.555Z,101866.72
2022-10-17T19:21:44.593Z,101807.59
2022-10-17T19:24:19.371Z,101794.31
2022-10-17T19:26:47.136Z,101797.88
2022-10-17T19:29:15.338Z,101893.03
2022-10-17T19:31:42.382Z,101827.41
2022-10-17T19:34:10.612Z,101892.41
2022-10-17T19:36:38.065Z,101794.25
2022-10-17T19:39:07.274Z,101882.66
2022-10-17T19:41:40.647Z,101883.44
2022-10-17T19:44:10.373Z,101812.91
2022-10-17T19:46:37.166Z,101723.94
2022-10-17T19:49:04.636Z,101896.16
2022-10-17T19:51:31.174Z,101899.00
2022-10-17T19:54:02.901Z,101884.63
2022-10-17T19:56:31.538Z,101840.13
2022-10-17T19:58:58.891Z,101893.03
2022-10-17T20:01:29.218Z,101859.28
2022-10-17T20:04:02.866Z,101798.13
